Time;durP1;ratioP1;P1;durP2;ratioP2;P2;SDS_P1;SDS_P2;PMS_P1;PMS_P2;Temp;Humidity;BMP_temperature;BMP_pressure;BME280_temperature;BME280_humidity;BME280_pressure;Samples;Min_cycle;Max_cycle;Signal;HPM_P1;HPM_P2
2023/12/23 00:01:57;;;;;;;14.13;12.73;;;7.00;99.90;;;;;;5089386;29;20032;-77
2023/12/23 00:04:28;;;;;;;15.00;13.43;;;6.80;99.90;;;;;;5089620;29;20492;-77
2023/12/23 00:06:59;;;;;;;14.60;13.10;;;7.10;99.90;;;;;;5089231;29;20036;-76
2023/12/23 00:09:29;;;;;;;15.15;13.68;;;7.10;99.90;;;;;;5089342;29;20034;-77
2023/12/23 00:12:00;;;;;;;14.77;13.38;;;7.10;99.90;;;;;;5089214;29;20123;-77
2023/12/23 00:14:33;;;;;;;14.75;13.40;;;6.90;99.90;;;;;;5088181;29;20050;-77
2023/12/23 00:17:04;;;;;;;14.60;12.45;;;6.90;99.90;;;;;;5089439;29;20043;-77
2023/12/23 00:19:35;;;;;;;14.25;12.20;;;7.00;99.90;;;;;;5089581;29;20024;-77
2023/12/23 00:22:06;;;;;;;29.35;19.83;;;6.80;99.90;;;;;;5089244;29;20115;-77
2023/12/23 00:24:37;;;;;;;103.43;53.10;;;6.60;99.90;;;;;;5089160;29;20481;-77
2023/12/23 00:27:07;;;;;;;91.15;51.97;;;6.60;99.90;;;;;;5087971;29;20079;-77
2023/12/23 00:29:40;;;;;;;50.92;33.17;;;6.70;99.90;;;;;;5089004;29;20025;-79
2023/12/23 00:32:11;;;;;;;18.30;15.32;;;6.70;99.90;;;;;;5088608;29;20036;-77
2023/12/23 00:34:41;;;;;;;15.23;13.65;;;6.30;99.90;;;;;;5088892;29;20024;-77
2023/12/23 00:37:12;;;;;;;27.15;19.23;;;6.40;99.90;;;;;;5087484;29;20035;-77
2023/12/23 00:39:43;;;;;;;15.48;12.73;;;6.10;99.90;;;;;;5087113;29;20048;-77
2023/12/23 00:42:14;;;;;;;16.75;13.00;;;6.00;99.90;;;;;;5088784;29;20556;-77
2023/12/23 00:44:45;;;;;;;15.23;12.27;;;6.20;99.90;;;;;;5088645;29;20032;-77
2023/12/23 00:47:16;;;;;;;22.55;16.40;;;6.40;99.90;;;;;;5088755;29;20048;-77
2023/12/23 00:49:47;;;;;;;14.40;11.75;;;6.30;99.90;;;;;;5088521;29;20039;-77
2023/12/23 00:52:18;;;;;;;17.60;15.10;;;6.20;99.90;;;;;;5088470;29;20067;-77
2023/12/23 00:54:48;;;;;;;22.80;17.27;;;6.20;99.90;;;;;;5087799;29;20028;-77
2023/12/23 00:57:19;;;;;;;23.92;16.20;;;6.10;99.90;;;;;;5088189;29;20036;-76
2023/12/23 00:59:51;;;;;;;18.20;11.65;;;6.00;99.90;;;;;;5087184;29;20028;-76
2023/12/23 01:02:22;;;;;;;13.05;10.55;;;6.00;99.90;;;;;;5087293;29;20492;-77
2023/12/23 01:04:54;;;;;;;17.05;11.60;;;6.00;99.90;;;;;;5088384;29;20024;-76
2023/12/23 01:07:25;;;;;;;13.50;12.10;;;5.70;99.90;;;;;;5088406;29;20020;-76
2023/12/23 01:09:57;;;;;;;17.75;14.55;;;5.60;99.90;;;;;;5086969;29;20035;-77
2023/12/23 01:12:28;;;;;;;24.70;19.45;;;5.60;99.90;;;;;;5088068;29;20036;-76
2023/12/23 01:14:59;;;;;;;28.65;23.45;;;5.50;99.90;;;;;;5087853;29;20024;-76
2023/12/23 01:17:29;;;;;;;33.00;24.27;;;5.50;99.90;;;;;;5086884;29;20035;-77
2023/12/23 01:20:00;;;;;;;32.25;27.13;;;5.50;99.90;;;;;;5087141;29;20430;-77
2023/12/23 01:22:31;;;;;;;29.45;24.45;;;5.60;99.90;;;;;;5087892;29;20099;-76
2023/12/23 01:25:02;;;;;;;23.33;18.80;;;5.50;99.90;;;;;;5088097;29;20032;-77
2023/12/23 01:27:33;;;;;;;27.10;21.63;;;5.40;99.90;;;;;;5086675;29;20454;-77
2023/12/23 01:30:05;;;;;;;27.70;23.10;;;5.40;99.90;;;;;;5088435;29;20032;-76
2023/12/23 01:32:36;;;;;;;22.67;17.50;;;5.30;99.90;;;;;;5087644;29;20036;-77
2023/12/23 01:35:07;;;;;;;18.85;16.42;;;5.30;99.90;;;;;;5086680;29;20038;-76
2023/12/23 01:37:38;;;;;;;21.67;17.95;;;5.80;99.90;;;;;;5087800;29;20024;-77
2023/12/23 01:40:09;;;;;;;18.42;15.88;;;5.20;99.90;;;;;;5086165;29;20914;-76
2023/12/23 01:42:40;;;;;;;19.92;15.60;;;5.20;99.90;;;;;;5087693;29;20070;-76
2023/12/23 01:45:11;;;;;;;17.55;13.40;;;5.30;99.90;;;;;;5087474;29;20063;-76
2023/12/23 01:47:45;;;;;;;14.77;13.27;;;5.20;99.90;;;;;;5087756;29;20032;-77
2023/12/23 01:50:17;;;;;;;18.45;13.70;;;5.30;99.90;;;;;;5087568;29;20032;-77
2023/12/23 01:52:52;;;;;;;19.63;14.65;;;5.10;99.90;;;;;;5087466;29;20382;-76
2023/12/23 01:55:26;;;;;;;19.23;15.02;;;5.10;99.90;;;;;;5087552;29;20025;-76
2023/12/23 01:57:57;;;;;;;16.80;13.68;;;5.00;99.90;;;;;;5087381;29;20024;-76
2023/12/23 02:00:28;;;;;;;13.25;11.35;;;5.00;99.90;;;;;;5087326;29;20108;-76
2023/12/23 02:03:00;;;;;;;13.20;11.93;;;4.80;99.90;;;;;;5087024;29;20107;-76
2023/12/23 02:05:31;;;;;;;17.88;12.60;;;4.80;99.90;;;;;;5087135;29;20036;-77
2023/12/23 02:08:01;;;;;;;12.77;11.48;;;4.90;99.90;;;;;;5085212;29;20035;-76
2023/12/23 02:10:33;;;;;;;14.95;11.10;;;4.80;99.90;;;;;;5087129;29;20028;-77
2023/12/23 02:13:27;;;;;;;14.68;11.93;;;4.80;99.90;;;;;;5085745;29;20118;-76
2023/12/23 02:15:59;;;;;;;14.70;13.30;;;4.70;99.90;;;;;;5085463;29;20087;-76
2023/12/23 02:18:30;;;;;;;15.80;10.60;;;4.60;99.90;;;;;;5086830;29;20044;-76
2023/12/23 02:21:01;;;;;;;12.35;10.82;;;4.70;99.90;;;;;;5085827;29;20701;-76
2023/12/23 02:23:32;;;;;;;12.35;10.65;;;4.50;99.90;;;;;;5085749;29;20028;-76
2023/12/23 02:26:06;;;;;;;14.63;10.52;;;4.30;99.90;;;;;;5086285;29;20396;-76
2023/12/23 02:28:40;;;;;;;13.77;9.60;;;4.00;99.90;;;;;;5086009;29;20039;-76
2023/12/23 02:31:11;;;;;;;12.25;9.30;;;4.10;99.90;;;;;;5085425;29;20607;-76
2023/12/23 02:33:42;;;;;;;9.38;8.30;;;4.10;99.90;;;;;;5085613;29;20032;-76
2023/12/23 02:36:13;;;;;;;9.70;8.73;;;2.80;99.90;;;;;;5085305;29;20038;-77
2023/12/23 02:41:40;;;;;;;9.35;8.10;;;3.50;99.90;;;;;;5008333;29;20050;-76
2023/12/23 02:44:11;;;;;;;8.45;7.65;;;4.70;99.90;;;;;;5009614;29;20038;-76
2023/12/23 02:46:42;;;;;;;11.30;8.15;;;4.30;99.90;;;;;;5009645;29;20043;-76
2023/12/23 02:49:13;;;;;;;8.65;7.75;;;4.40;99.90;;;;;;5009742;29;20037;-76
2023/12/23 02:51:44;;;;;;;8.60;7.53;;;4.50;99.90;;;;;;5009746;29;20042;-77
2023/12/23 02:54:15;;;;;;;10.10;8.52;;;4.60;99.90;;;;;;5009609;29;20022;-76
2023/12/23 02:56:46;;;;;;;8.25;7.30;;;4.70;99.90;;;;;;5009755;29;20034;-76
2023/12/23 02:59:16;;;;;;;8.38;7.50;;;4.90;99.90;;;;;;5009722;29;20387;-76
2023/12/23 03:01:47;;;;;;;8.80;7.90;;;4.70;99.90;;;;;;5009105;29;20049;-76
2023/12/23 03:04:19;;;;;;;9.45;8.48;;;5.10;99.90;;;;;;5009200;29;20604;-76
2023/12/23 03:06:49;;;;;;;9.82;8.82;;;5.10;99.90;;;;;;4993016;29;20065;-76
2023/12/23 03:09:20;;;;;;;9.63;7.80;;;4.90;99.90;;;;;;5002858;29;20058;-76
2023/12/23 03:11:51;;;;;;;10.23;7.45;;;5.00;99.90;;;;;;4973913;29;20069;-76
2023/12/23 03:14:22;;;;;;;8.27;7.35;;;5.20;99.90;;;;;;4989028;29;20121;-76
2023/12/23 03:16:53;;;;;;;6.97;6.35;;;5.10;99.90;;;;;;4990457;29;20421;-76
2023/12/23 03:19:24;;;;;;;12.10;7.10;;;5.00;99.90;;;;;;4974170;29;20075;-76
2023/12/23 03:21:55;;;;;;;7.65;6.10;;;5.10;99.90;;;;;;4990438;29;20037;-76
2023/12/23 03:24:25;;;;;;;7.70;6.05;;;5.00;99.90;;;;;;4990546;29;20482;-76
2023/12/23 03:26:56;;;;;;;10.65;7.78;;;5.10;99.90;;;;;;4990419;29;20031;-76
2023/12/23 03:29:27;;;;;;;12.15;8.48;;;5.30;99.90;;;;;;4990274;29;20545;-76
2023/12/23 03:31:58;;;;;;;9.18;8.30;;;5.30;99.90;;;;;;4990169;29;20042;-76
2023/12/23 03:34:29;;;;;;;11.27;9.90;;;5.50;99.90;;;;;;4990386;29;20035;-76
2023/12/23 03:37:00;;;;;;;11.32;10.20;;;5.20;99.90;;;;;;4992231;29;20045;-76
2023/12/23 03:39:30;;;;;;;10.65;9.57;;;5.50;99.90;;;;;;4993261;29;20042;-76
2023/12/23 03:42:01;;;;;;;10.10;9.07;;;5.30;99.90;;;;;;4993682;29;20038;-76
2023/12/23 03:44:32;;;;;;;10.23;9.23;;;5.40;99.90;;;;;;4992543;29;20431;-75
2023/12/23 03:47:03;;;;;;;10.25;9.20;;;5.50;99.90;;;;;;4993566;29;20152;-75
2023/12/23 03:49:34;;;;;;;9.52;8.20;;;5.50;99.90;;;;;;4993579;29;20022;-76
2023/12/23 03:52:05;;;;;;;10.52;8.32;;;5.50;99.90;;;;;;4993544;29;20055;-76
2023/12/23 03:54:36;;;;;;;9.95;8.60;;;5.50;99.90;;;;;;4977195;29;20376;-76
2023/12/23 03:57:07;;;;;;;11.93;9.98;;;5.50;99.90;;;;;;4992198;29;20039;-76
2023/12/23 03:59:40;;;;;;;11.65;10.25;;;5.40;99.90;;;;;;4993094;29;20030;-76
2023/12/23 04:02:11;;;;;;;16.95;10.43;;;5.50;99.90;;;;;;4993224;29;20038;-76
2023/12/23 04:04:42;;;;;;;11.50;9.90;;;5.60;99.90;;;;;;4993040;29;20484;-76
2023/12/23 04:07:13;;;;;;;10.77;8.98;;;5.40;99.90;;;;;;4993198;29;20099;-76
2023/12/23 04:09:44;;;;;;;10.52;9.23;;;5.40;99.90;;;;;;4993090;29;20064;-76
2023/12/23 04:12:15;;;;;;;10.35;8.60;;;5.40;99.90;;;;;;4991853;29;20103;-77
2023/12/23 04:14:46;;;;;;;9.55;8.32;;;5.30;99.90;;;;;;4991728;29;20034;-75
2023/12/23 04:17:16;;;;;;;9.68;8.02;;;5.30;99.90;;;;;;4992911;29;20057;-76
2023/12/23 04:19:49;;;;;;;11.60;8.32;;;5.40;99.90;;;;;;4976577;29;20034;-76
2023/12/23 04:22:20;;;;;;;12.48;8.57;;;5.40;99.90;;;;;;4991760;29;20030;-76
2023/12/23 04:24:51;;;;;;;11.25;8.85;;;5.40;99.90;;;;;;4992907;29;20095;-76
2023/12/23 04:27:21;;;;;;;9.80;8.80;;;5.40;99.90;;;;;;4992612;29;20027;-77
2023/12/23 04:29:52;;;;;;;9.48;8.40;;;5.40;99.90;;;;;;4991510;29;20589;-76
2023/12/23 04:32:23;;;;;;;12.48;9.32;;;5.40;99.90;;;;;;4992799;29;20042;-76
2023/12/23 04:34:55;;;;;;;13.10;9.32;;;5.40;99.90;;;;;;4992878;29;20102;-76
2023/12/23 04:37:26;;;;;;;11.30;9.45;;;5.40;99.90;;;;;;4992942;29;20489;-76
2023/12/23 04:39:57;;;;;;;11.35;10.20;;;5.60;99.90;;;;;;4995786;29;20050;-76
2023/12/23 04:42:28;;;;;;;12.85;10.32;;;5.60;99.90;;;;;;4991510;29;20095;-76
2023/12/23 04:44:59;;;;;;;11.32;9.30;;;5.70;99.90;;;;;;4992651;29;20027;-76
2023/12/23 04:47:30;;;;;;;12.45;11.15;;;5.60;99.90;;;;;;4992071;29;20026;-76
2023/12/23 04:50:01;;;;;;;13.07;10.25;;;5.80;99.90;;;;;;4991019;29;20027;-76
2023/12/23 04:52:32;;;;;;;12.13;9.75;;;5.70;99.90;;;;;;4991197;29;20066;-76
2023/12/23 04:55:05;;;;;;;12.80;10.77;;;5.80;99.90;;;;;;4991966;29;20101;-76
2023/12/23 04:57:36;;;;;;;10.95;9.80;;;5.90;99.90;;;;;;4992582;29;20042;-76
2023/12/23 05:00:07;;;;;;;10.32;9.32;;;5.90;99.90;;;;;;4992359;29;20030;-76
2023/12/23 05:02:38;;;;;;;13.80;10.32;;;6.10;99.90;;;;;;5006316;29;20041;-76
2023/12/23 05:05:09;;;;;;;11.75;10.57;;;6.00;99.90;;;;;;4992477;29;20391;-76
2023/12/23 05:07:40;;;;;;;11.10;9.90;;;6.20;99.90;;;;;;4990493;29;20035;-76
2023/12/23 05:10:10;;;;;;;12.07;11.10;;;6.30;99.90;;;;;;4990969;29;20026;-76
2023/12/23 05:12:41;;;;;;;12.10;11.20;;;6.40;99.90;;;;;;4992154;29;20464;-76
2023/12/23 05:15:12;;;;;;;12.32;11.23;;;6.50;99.90;;;;;;4991833;29;20403;-76
2023/12/23 05:17:43;;;;;;;12.10;11.00;;;6.40;99.90;;;;;;5006016;29;20491;-76
2023/12/23 05:20:14;;;;;;;12.35;11.32;;;6.50;99.90;;;;;;4990615;29;20026;-76
2023/12/23 05:22:45;;;;;;;11.98;10.75;;;6.40;99.90;;;;;;5006120;29;20032;-76
2023/12/23 05:25:15;;;;;;;12.38;11.30;;;6.40;99.90;;;;;;4992129;29;20090;-77
2023/12/23 05:27:46;;;;;;;12.25;11.25;;;6.30;99.90;;;;;;4991951;29;20023;-76
2023/12/23 05:30:17;;;;;;;14.43;13.35;;;6.40;99.90;;;;;;4990501;29;20030;-76
2023/12/23 05:32:49;;;;;;;17.15;15.50;;;6.60;99.90;;;;;;4991827;29;20043;-76
2023/12/23 05:35:21;;;;;;;17.55;16.35;;;6.80;99.90;;;;;;4991603;29;20126;-76
2023/12/23 05:37:52;;;;;;;15.65;14.52;;;6.80;99.90;;;;;;4991664;29;20487;-75
2023/12/23 05:40:22;;;;;;;18.48;17.17;;;6.70;99.90;;;;;;4989507;29;20110;-75
2023/12/23 05:42:53;;;;;;;19.90;18.60;;;6.70;99.90;;;;;;5005208;29;20038;-75
2023/12/23 05:45:24;;;;;;;19.23;17.90;;;6.70;99.90;;;;;;4991158;29;20041;-75
2023/12/23 05:47:55;;;;;;;17.77;16.52;;;6.70;99.90;;;;;;4990984;29;20399;-76
2023/12/23 05:50:26;;;;;;;16.02;14.98;;;6.40;99.90;;;;;;4990333;29;20440;-75
2023/12/23 05:52:57;;;;;;;20.08;18.63;;;6.60;99.90;;;;;;4990403;29;20030;-75
2023/12/23 05:55:28;;;;;;;21.95;20.45;;;6.80;99.90;;;;;;4990120;29;20045;-75
2023/12/23 05:57:59;;;;;;;19.02;17.83;;;7.00;99.90;;;;;;4989012;29;20035;-75
2023/12/23 06:00:30;;;;;;;23.70;22.25;;;6.90;99.90;;;;;;4990141;29;20062;-75
2023/12/23 06:03:00;;;;;;;18.98;17.58;;;7.20;99.90;;;;;;5003469;29;20038;-76
2023/12/23 06:05:31;;;;;;;22.63;21.02;;;7.00;99.90;;;;;;4990103;29;20065;-76
2023/12/23 06:08:04;;;;;;;26.92;25.02;;;7.20;99.90;;;;;;5003850;29;20033;-76
2023/12/23 06:10:34;;;;;;;21.27;20.00;;;7.20;99.90;;;;;;4989989;29;20042;-75
2023/12/23 06:13:05;;;;;;;23.05;21.63;;;7.30;99.90;;;;;;4990421;29;20488;-74
2023/12/23 06:15:36;;;;;;;22.27;20.85;;;7.50;99.90;;;;;;4990867;29;20179;-75
2023/12/23 06:18:07;;;;;;;29.95;27.83;;;7.70;99.90;;;;;;4990579;29;20514;-75
2023/12/23 06:20:38;;;;;;;28.70;26.80;;;7.70;99.90;;;;;;4989472;29;20178;-75
2023/12/23 06:23:09;;;;;;;28.08;26.30;;;8.00;99.90;;;;;;4990255;29;20034;-75
2023/12/23 06:25:40;;;;;;;28.30;26.52;;;8.00;99.90;;;;;;4988555;29;20038;-75
2023/12/23 06:28:10;;;;;;;27.05;25.30;;;8.00;99.90;;;;;;4989334;29;20034;-75
2023/12/23 06:30:42;;;;;;;24.70;22.98;;;8.10;99.90;;;;;;4989750;29;20498;-75
2023/12/23 06:33:12;;;;;;;25.52;23.77;;;8.30;99.90;;;;;;4989652;29;20594;-75
2023/12/23 06:35:43;;;;;;;24.40;22.40;;;8.40;99.90;;;;;;4989805;29;20030;-74
2023/12/23 06:38:15;;;;;;;21.73;20.08;;;8.40;99.90;;;;;;5003533;29;20037;-77
2023/12/23 06:40:46;;;;;;;22.17;20.30;;;8.50;99.90;;;;;;4989457;29;20050;-74
2023/12/23 06:43:17;;;;;;;21.40;19.67;;;8.60;99.90;;;;;;4990115;29;20046;-75
2023/12/23 06:45:48;;;;;;;18.75;17.13;;;8.70;99.90;;;;;;4989756;29;20030;-76
2023/12/23 06:48:19;;;;;;;18.15;16.63;;;8.80;99.90;;;;;;4989936;29;20115;-75
2023/12/23 06:50:50;;;;;;;17.92;16.45;;;8.80;99.90;;;;;;4972965;29;20026;-76
2023/12/23 06:53:20;;;;;;;14.70;13.40;;;7.90;99.90;;;;;;4988560;29;20046;-77
2023/12/23 06:55:51;;;;;;;15.27;13.93;;;9.00;99.90;;;;;;4987927;29;20034;-75
2023/12/23 06:58:23;;;;;;;15.52;14.23;;;9.00;99.90;;;;;;4972670;29;20039;-75
2023/12/23 07:00:54;;;;;;;13.52;12.32;;;9.00;99.90;;;;;;4971623;29;20120;-77
2023/12/23 07:03:25;;;;;;;14.30;13.07;;;9.10;99.90;;;;;;4970118;29;20471;-77
2023/12/23 07:06:00;;;;;;;13.10;11.80;;;9.20;99.90;;;;;;5008123;29;20029;-76
2023/12/23 07:08:33;;;;;;;13.73;12.27;;;9.20;99.90;;;;;;4991942;29;20093;-77
2023/12/23 07:11:05;;;;;;;15.40;13.93;;;9.20;99.90;;;;;;5007959;29;20090;-77
2023/12/23 07:13:36;;;;;;;14.52;12.48;;;9.40;99.90;;;;;;5012593;29;20042;-75
2023/12/23 07:16:08;;;;;;;13.85;12.52;;;9.60;99.90;;;;;;5012382;29;20158;-77
2023/12/23 07:18:39;;;;;;;18.02;15.85;;;9.50;99.90;;;;;;4995950;29;20034;-76
2023/12/23 07:21:11;;;;;;;15.85;13.55;;;9.80;99.90;;;;;;5012210;29;20166;-76
2023/12/23 07:23:44;;;;;;;14.30;12.88;;;9.90;99.90;;;;;;5012137;29;20030;-76
2023/12/23 07:26:16;;;;;;;15.38;12.82;;;10.00;99.90;;;;;;5008900;29;20145;-77
2023/12/23 07:28:48;;;;;;;15.13;12.73;;;10.20;99.90;;;;;;5011538;29;20118;-77
2023/12/23 07:31:20;;;;;;;15.68;12.85;;;10.30;99.90;;;;;;4995889;29;20068;-76
2023/12/23 07:33:51;;;;;;;15.30;12.00;;;10.40;99.90;;;;;;5012340;29;20081;-77
2023/12/23 07:36:22;;;;;;;18.42;12.02;;;10.40;99.90;;;;;;4986579;29;20477;-77
2023/12/23 07:38:54;;;;;;;15.82;12.43;;;10.50;99.90;;;;;;5503014;23;20019;-76
2023/12/23 07:41:24;;;;;;;15.25;11.98;;;10.50;99.90;;;;;;5010664;29;20121;-77
2023/12/23 07:43:57;;;;;;;13.88;10.90;;;10.50;99.90;;;;;;5011025;29;20108;-77
2023/12/23 07:46:28;;;;;;;16.10;12.15;;;10.70;99.90;;;;;;5010475;29;20022;-75
2023/12/23 07:48:59;;;;;;;12.40;9.73;;;11.00;99.90;;;;;;5009249;29;20030;-77
2023/12/23 07:51:29;;;;;;;15.23;9.13;;;11.10;99.90;;;;;;5010182;29;20042;-77
2023/12/23 07:54:00;;;;;;;12.68;9.63;;;11.00;99.90;;;;;;5008997;29;20081;-76
2023/12/23 07:56:31;;;;;;;12.50;8.57;;;11.10;99.90;;;;;;5009876;29;20459;-76
2023/12/23 07:59:02;;;;;;;11.65;9.07;;;11.10;99.90;;;;;;5009786;29;20022;-77
2023/12/23 08:01:33;;;;;;;14.20;8.38;;;11.10;99.90;;;;;;5009398;29;20026;-76
2023/12/23 08:04:04;;;;;;;13.32;9.18;;;11.20;99.90;;;;;;5010893;29;20034;-77
2023/12/23 08:06:35;;;;;;;13.40;8.85;;;11.10;99.90;;;;;;5011805;29;20030;-75
2023/12/23 08:09:06;;;;;;;13.75;9.85;;;11.20;99.90;;;;;;5003974;29;20392;-77
2023/12/23 08:11:37;;;;;;;12.70;9.02;;;11.30;99.90;;;;;;4991432;29;20384;-75
2023/12/23 08:14:08;;;;;;;15.38;11.75;;;11.40;99.90;;;;;;4991663;29;20041;-75
2023/12/23 08:16:39;;;;;;;16.65;12.50;;;11.60;99.90;;;;;;4991983;29;20023;-75
2023/12/23 08:19:09;;;;;;;12.45;10.95;;;11.60;99.90;;;;;;4991799;29;20042;-75
2023/12/23 08:21:40;;;;;;;10.85;9.70;;;11.70;99.90;;;;;;4989784;29;20090;-75
2023/12/23 08:24:13;;;;;;;12.88;8.55;;;11.70;99.90;;;;;;4990067;29;20136;-75
2023/12/23 08:26:44;;;;;;;9.20;7.75;;;11.80;99.90;;;;;;4990155;29;20066;-75
2023/12/23 08:29:15;;;;;;;13.75;8.75;;;11.90;99.90;;;;;;4991272;29;20030;-75
2023/12/23 08:31:49;;;;;;;14.20;7.75;;;12.10;99.90;;;;;;4991259;29;20436;-77
2023/12/23 08:34:28;;;;;;;11.10;6.28;;;13.00;99.90;;;;;;4990418;29;20063;-77
2023/12/23 08:37:02;;;;;;;15.00;9.02;;;12.40;99.90;;;;;;4991126;29;20023;-77
2023/12/23 08:39:33;;;;;;;10.60;9.45;;;12.80;99.90;;;;;;4989467;29;20090;-77
2023/12/23 08:42:04;;;;;;;10.48;9.52;;;12.80;99.90;;;;;;4990932;29;20057;-76
2023/12/23 08:44:35;;;;;;;12.05;11.07;;;12.70;99.90;;;;;;4989929;29;20038;-76
2023/12/23 08:47:06;;;;;;;12.85;11.50;;;12.70;99.90;;;;;;4987011;29;20034;-76
2023/12/23 08:49:39;;;;;;;13.13;11.95;;;12.60;99.90;;;;;;4990353;29;20537;-78
2023/12/23 08:52:10;;;;;;;16.30;11.85;;;12.90;99.90;;;;;;4988892;29;20042;-78
2023/12/23 08:54:41;;;;;;;14.25;12.85;;;13.10;99.90;;;;;;4990394;29;20031;-76
2023/12/23 08:57:11;;;;;;;13.68;12.55;;;13.30;99.90;;;;;;4990806;29;20030;-77
2023/12/23 08:59:43;;;;;;;12.88;11.70;;;13.60;99.90;;;;;;4991090;29;20105;-78
2023/12/23 09:02:14;;;;;;;11.70;10.73;;;13.60;99.90;;;;;;4989898;29;20535;-77
2023/12/23 09:04:45;;;;;;;10.85;9.80;;;13.80;99.90;;;;;;4990297;29;20030;-76
2023/12/23 09:07:16;;;;;;;10.02;9.02;;;13.90;99.90;;;;;;4991121;29;20439;-78
2023/12/23 09:09:47;;;;;;;11.70;9.70;;;13.90;99.90;;;;;;5467385;23;20139;-78
2023/12/23 09:12:21;;;;;;;10.98;9.88;;;13.90;99.90;;;;;;5088937;29;20044;-77
2023/12/23 09:14:52;;;;;;;11.73;10.73;;;14.00;99.90;;;;;;5106227;29;20027;-77
2023/12/23 09:17:22;;;;;;;11.90;10.80;;;14.50;99.90;;;;;;5088306;29;20465;-77
2023/12/23 09:19:53;;;;;;;10.60;9.52;;;14.40;99.90;;;;;;5104761;29;20095;-76
2023/12/23 09:22:24;;;;;;;9.95;8.93;;;14.50;99.90;;;;;;5089319;29;20035;-77
2023/12/23 09:24:55;;;;;;;16.58;9.30;;;14.50;99.90;;;;;;5088653;29;20039;-78
2023/12/23 09:27:27;;;;;;;13.35;12.25;;;14.60;99.90;;;;;;5105618;29;20024;-76
2023/12/23 09:29:59;;;;;;;15.07;13.73;;;14.60;99.90;;;;;;5104433;29;20102;-75
2023/12/23 09:32:30;;;;;;;11.65;10.85;;;14.90;99.90;;;;;;5104817;29;20047;-76
2023/12/23 09:35:01;;;;;;;149.52;133.63;;;14.80;99.90;;;;;;5104218;29;20027;-78
2023/12/23 09:37:32;;;;;;;14.63;13.43;;;14.90;99.90;;;;;;5104974;29;20038;-77
2023/12/23 09:40:04;;;;;;;14.18;13.02;;;14.90;99.90;;;;;;5104237;29;20028;-79
2023/12/23 09:42:35;;;;;;;17.88;16.35;;;14.90;99.90;;;;;;5091245;29;20035;-80
2023/12/23 09:45:06;;;;;;;20.08;18.80;;;15.20;99.90;;;;;;5082899;29;20035;-76
2023/12/23 09:47:37;;;;;;;22.77;21.02;;;15.00;99.90;;;;;;5084853;29;20028;-78
2023/12/23 09:50:08;;;;;;;21.15;19.63;;;15.10;99.90;;;;;;5084369;29;20055;-78
2023/12/23 09:52:39;;;;;;;25.67;23.75;;;15.10;99.90;;;;;;5087255;29;20039;-77
2023/12/23 09:55:11;;;;;;;25.67;23.88;;;15.30;99.90;;;;;;5084851;29;20025;-78
2023/12/23 09:57:42;;;;;;;24.05;22.40;;;15.40;99.90;;;;;;5085598;29;20032;-76
2023/12/23 10:00:14;;;;;;;23.80;22.30;;;15.30;99.90;;;;;;5085105;29;20036;-77
2023/12/23 10:02:44;;;;;;;23.30;21.73;;;15.40;99.90;;;;;;5083853;29;20035;-79
2023/12/23 10:05:16;;;;;;;21.20;19.75;;;15.40;99.90;;;;;;5085258;29;20032;-78
2023/12/23 10:07:47;;;;;;;19.55;18.02;;;15.80;99.90;;;;;;5085300;29;20476;-78
2023/12/23 10:10:18;;;;;;;17.27;15.88;;;15.60;99.90;;;;;;5085161;29;20083;-77
2023/12/23 10:12:49;;;;;;;15.82;14.73;;;15.40;99.90;;;;;;5085246;29;20071;-75
2023/12/23 10:15:20;;;;;;;12.43;10.95;;;15.70;99.90;;;;;;5092747;29;20601;-78
2023/12/23 10:17:52;;;;;;;11.32;10.32;;;15.40;99.90;;;;;;5095487;29;20020;-78
2023/12/23 10:20:23;;;;;;;13.65;10.20;;;15.70;99.90;;;;;;5092650;29;20073;-77
2023/12/23 10:22:54;;;;;;;10.07;9.15;;;15.30;99.90;;;;;;5085225;29;20060;-77
2023/12/23 10:25:26;;;;;;;8.82;7.95;;;15.20;99.90;;;;;;5085396;29;20420;-75
2023/12/23 10:28:05;;;;;;;8.65;7.65;;;15.30;99.90;;;;;;5084818;29;20032;-75
2023/12/23 10:30:41;;;;;;;7.95;7.25;;;15.00;99.90;;;;;;5084692;29;20020;-75
2023/12/23 10:33:16;;;;;;;9.23;7.90;;;15.30;99.90;;;;;;5084529;29;20044;-77
2023/12/23 10:35:48;;;;;;;9.82;6.93;;;15.30;99.90;;;;;;5083800;29;20083;-77
2023/12/23 10:38:22;;;;;;;10.40;7.70;;;14.90;99.90;;;;;;5083945;29;20024;-78
2023/12/23 10:41:19;;;;;;;9.77;8.48;;;15.00;99.90;;;;;;5083564;29;20031;-77
2023/12/23 10:43:52;;;;;;;9.07;7.80;;;15.10;99.90;;;;;;5083764;29;20056;-76
2023/12/23 10:46:25;;;;;;;10.50;7.93;;;15.00;99.90;;;;;;5081552;29;20115;-79
2023/12/23 10:48:56;;;;;;;10.70;8.18;;;15.20;99.90;;;;;;5082501;29;20091;-75
2023/12/23 10:51:27;;;;;;;14.43;9.90;;;15.20;99.90;;;;;;5084069;29;20048;-76
2023/12/23 10:54:00;;;;;;;10.45;8.27;;;15.20;99.90;;;;;;5084265;29;20028;-75
2023/12/23 10:56:32;;;;;;;12.32;8.63;;;15.30;99.90;;;;;;5084561;29;20684;-75
2023/12/23 10:59:03;;;;;;;9.50;8.48;;;15.50;99.90;;;;;;5084382;29;20028;-75
2023/12/23 11:01:36;;;;;;;11.05;8.20;;;15.50;99.90;;;;;;5085015;29;20038;-75
2023/12/23 11:04:08;;;;;;;9.98;7.47;;;15.60;99.90;;;;;;5093106;29;20752;-74
2023/12/23 11:06:43;;;;;;;7.85;7.10;;;15.90;99.90;;;;;;5089349;29;20552;-78
2023/12/23 11:09:16;;;;;;;9.23;7.38;;;16.10;99.90;;;;;;5090851;29;20659;-80
2023/12/23 11:11:48;;;;;;;9.45;8.45;;;16.60;99.90;;;;;;5104240;29;20039;-78
2023/12/23 11:14:19;;;;;;;11.32;10.20;;;15.60;99.90;;;;;;5096731;29;20091;-76
2023/12/23 11:16:50;;;;;;;10.00;9.00;;;15.70;99.90;;;;;;5093058;29;20032;-76
2023/12/23 11:19:21;;;;;;;8.50;7.70;;;15.40;99.90;;;;;;5099046;29;20038;-79
2023/12/23 11:22:24;;;;;;;10.32;6.25;;;15.50;99.90;;;;;;5093222;29;20028;-78
2023/12/23 11:24:56;;;;;;;9.90;7.65;;;15.40;99.90;;;;;;5090536;29;20038;-77
2023/12/23 11:27:34;;;;;;;9.07;7.38;;;15.30;99.90;;;;;;5089459;29;20040;-77
2023/12/23 11:42:29;;;;;;;13.25;9.90;;;15.20;99.90;;;;;;5327997;27;20415;-70
2023/12/23 11:45:00;;;;;;;11.05;8.00;;;15.10;99.90;;;;;;5327998;27;20038;-74
2023/12/23 11:47:31;;;;;;;9.05;8.15;;;15.20;99.90;;;;;;5326737;27;20030;-73
2023/12/23 11:50:02;;;;;;;9.82;8.43;;;15.50;99.90;;;;;;5327623;27;20015;-74
2023/12/23 11:52:36;;;;;;;8.02;7.25;;;15.70;99.90;;;;;;5327956;27;20037;-71
2023/12/23 11:55:07;;;;;;;10.27;7.47;;;15.60;99.90;;;;;;5327657;27;21375;-70
2023/12/23 11:57:38;;;;;;;8.80;7.72;;;15.40;99.90;;;;;;5327815;27;20030;-72
2023/12/23 12:00:11;;;;;;;8.50;7.25;;;15.60;99.90;;;;;;5326532;27;20023;-70
2023/12/23 12:02:42;;;;;;;10.80;7.07;;;15.80;99.90;;;;;;5307488;27;20031;-73
2023/12/23 12:05:13;;;;;;;10.55;6.68;;;15.50;99.90;;;;;;5306668;28;20034;-72
2023/12/23 12:07:44;;;;;;;9.75;6.70;;;15.30;99.90;;;;;;5306152;28;20035;-71
2023/12/23 12:10:16;;;;;;;10.40;7.78;;;15.50;99.90;;;;;;5305998;28;20100;-73
2023/12/23 12:12:47;;;;;;;10.00;9.20;;;15.90;99.90;;;;;;5306056;28;20110;-72
2023/12/23 12:15:18;;;;;;;8.57;7.78;;;16.40;99.90;;;;;;5305993;28;20102;-74
2023/12/23 12:17:50;;;;;;;9.90;7.63;;;16.00;99.90;;;;;;5305953;28;20019;-73
2023/12/23 12:20:23;;;;;;;10.07;8.80;;;15.70;99.90;;;;;;5305996;28;20051;-73
2023/12/23 12:22:53;;;;;;;9.30;8.30;;;15.50;99.90;;;;;;5303755;28;20035;-73
2023/12/23 12:25:26;;;;;;;12.55;8.02;;;15.50;99.90;;;;;;5305203;28;20112;-74
2023/12/23 12:27:58;;;;;;;10.57;9.50;;;15.20;99.90;;;;;;5304526;27;20015;-74
2023/12/23 12:30:30;;;;;;;11.80;10.52;;;15.20;99.90;;;;;;5302957;27;20027;-70
2023/12/23 12:33:02;;;;;;;13.23;12.20;;;15.10;99.90;;;;;;5303063;28;20024;-73
2023/12/23 12:35:34;;;;;;;16.05;14.57;;;15.00;99.90;;;;;;5304520;27;20019;-73
2023/12/23 12:38:07;;;;;;;19.42;16.58;;;15.00;99.90;;;;;;5304491;27;20103;-73
2023/12/23 12:40:40;;;;;;;17.52;16.35;;;14.90;99.90;;;;;;5305100;27;20159;-72
2023/12/23 12:43:11;;;;;;;17.80;16.52;;;14.90;99.90;;;;;;5290898;27;20032;-73
2023/12/23 12:45:41;;;;;;;19.58;18.13;;;15.00;99.90;;;;;;5290026;28;20022;-73
2023/12/23 12:48:12;;;;;;;19.20;17.25;;;15.00;99.90;;;;;;5291392;28;20024;-73
2023/12/23 12:50:44;;;;;;;15.70;14.45;;;14.80;99.90;;;;;;5290581;28;20126;-71
2023/12/23 12:53:15;;;;;;;12.63;11.55;;;14.70;99.90;;;;;;5291057;28;20494;-73
2023/12/23 12:55:46;;;;;;;9.43;8.60;;;14.40;99.90;;;;;;5290941;28;20023;-74
2023/12/23 12:58:18;;;;;;;9.40;8.68;;;14.10;99.90;;;;;;5291140;28;20535;-73
2023/12/23 13:00:51;;;;;;;9.65;8.57;;;14.00;99.90;;;;;;5290830;28;20438;-73
2023/12/23 13:03:22;;;;;;;9.38;8.77;;;14.20;99.90;;;;;;5291294;28;20039;-74
2023/12/23 13:05:52;;;;;;;9.43;8.32;;;14.10;99.90;;;;;;5291028;28;20517;-74
2023/12/23 13:08:23;;;;;;;10.20;9.60;;;13.70;99.90;;;;;;5289475;28;20484;-73
2023/12/23 13:10:54;;;;;;;9.35;8.80;;;13.50;99.90;;;;;;5290530;28;20047;-71
2023/12/23 13:13:25;;;;;;;9.45;8.88;;;13.40;99.90;;;;;;5290616;28;20028;-71
2023/12/23 13:15:56;;;;;;;8.57;8.07;;;13.50;99.90;;;;;;5289376;28;20038;-72